createdAt,value
2024-01-08T00:01:22.464Z,2.60
2024-01-08T00:03:49.645Z,2.60
2024-01-08T00:06:19.230Z,2.60
2024-01-08T00:08:46.606Z,2.70
2024-01-08T00:11:13.840Z,2.60
2024-01-08T00:13:40.943Z,2.60
2024-01-08T00:16:08.374Z,2.60
2024-01-08T00:18:35.796Z,2.60
2024-01-08T00:21:04.133Z,2.60
2024-01-08T00:23:32.217Z,2.70
2024-01-08T00:25:59.566Z,2.60
2024-01-08T00:28:27.372Z,2.60
2024-01-08T00:30:54.561Z,2.60
2024-01-08T00:33:21.804Z,2.60
2024-01-08T00:35:49.038Z,2.60
2024-01-08T00:38:16.320Z,2.50
2024-01-08T00:40:43.431Z,2.40
2024-01-08T00:43:10.522Z,2.30
2024-01-08T00:45:37.742Z,2.20
2024-01-08T00:48:05.264Z,2.20
2024-01-08T00:50:32.402Z,2.30
2024-01-08T00:52:59.587Z,2.20
2024-01-08T00:55:26.736Z,2.30
2024-01-08T00:57:55.744Z,2.30
2024-01-08T01:00:22.885Z,2.50
2024-01-08T01:02:50.277Z,2.40
2024-01-08T01:05:17.759Z,2.50
2024-01-08T01:07:45.777Z,2.50
2024-01-08T01:10:12.947Z,2.40
2024-01-08T01:12:40.082Z,2.50
2024-01-08T01:15:07.616Z,2.50
2024-01-08T01:17:34.981Z,2.50
2024-01-08T01:20:02.700Z,2.60
2024-01-08T01:22:29.857Z,2.50
2024-01-08T01:24:56.995Z,2.60
2024-01-08T01:27:24.111Z,2.50
2024-01-08T01:29:51.199Z,2.50
2024-01-08T01:32:18.338Z,2.50
2024-01-08T01:34:45.508Z,2.30
2024-01-08T01:37:12.674Z,2.20
2024-01-08T01:39:39.756Z,2.30
2024-01-08T01:42:06.897Z,2.30
2024-01-08T01:44:34.178Z,2.30
2024-01-08T01:47:01.776Z,2.30
2024-01-08T01:49:29.525Z,2.40
2024-01-08T01:51:57.458Z,2.40
2024-01-08T01:54:26.627Z,2.50
2024-01-08T01:57:01.042Z,2.50
2024-01-08T01:59:29.893Z,2.60
2024-01-08T02:02:01.554Z,2.60
2024-01-08T02:04:30.934Z,2.60
2024-01-08T02:07:00.453Z,2.60
2024-01-08T02:09:28.380Z,2.60
2024-01-08T02:11:56.029Z,2.60
2024-01-08T02:14:23.275Z,2.60
2024-01-08T02:16:50.650Z,2.20
2024-01-08T02:19:17.997Z,2.20
2024-01-08T02:21:45.320Z,2.10
2024-01-08T02:24:12.686Z,2.00
2024-01-08T02:26:39.881Z,1.90
2024-01-08T02:29:07.058Z,1.80
2024-01-08T02:31:34.248Z,1.70
2024-01-08T02:34:01.540Z,1.60
2024-01-08T02:36:28.790Z,1.50
2024-01-08T02:38:55.901Z,1.40
2024-01-08T02:41:23.144Z,1.40
2024-01-08T02:43:50.845Z,1.30
2024-01-08T02:46:18.118Z,1.20
2024-01-08T02:48:45.372Z,1.20
2024-01-08T02:51:12.543Z,1.20
2024-01-08T02:53:39.691Z,1.20
2024-01-08T02:56:07.347Z,1.10
2024-01-08T02:58:34.532Z,1.10
2024-01-08T03:01:01.738Z,1.20
2024-01-08T03:03:28.932Z,1.20
2024-01-08T03:05:56.038Z,1.20
2024-01-08T03:08:23.197Z,1.10
2024-01-08T03:10:50.299Z,1.20
2024-01-08T03:13:17.640Z,1.20
2024-01-08T03:15:44.776Z,1.20
2024-01-08T03:18:12.138Z,1.20
2024-01-08T03:20:39.751Z,1.20
2024-01-08T03:23:07.379Z,1.20
2024-01-08T03:25:34.591Z,1.20
2024-01-08T03:28:01.887Z,1.20
2024-01-08T03:30:29.093Z,1.20
2024-01-08T03:32:56.523Z,1.20
2024-01-08T03:35:23.767Z,1.20
2024-01-08T03:37:50.976Z,1.20
2024-01-08T03:40:18.182Z,1.20
2024-01-08T03:42:46.214Z,1.20
2024-01-08T03:45:13.372Z,1.20
2024-01-08T03:47:43.268Z,1.20
2024-01-08T03:50:10.719Z,1.30
2024-01-08T03:52:37.908Z,1.20
2024-01-08T03:55:05.305Z,1.20
2024-01-08T03:57:32.407Z,1.30
2024-01-08T03:59:59.615Z,1.30
2024-01-08T04:02:26.795Z,1.30
2024-01-08T04:04:54.006Z,1.30
2024-01-08T04:07:21.121Z,1.30
2024-01-08T04:09:48.291Z,1.30
2024-01-08T04:12:15.413Z,1.30
2024-01-08T04:14:42.659Z,1.30
2024-01-08T04:17:09.914Z,1.30
2024-01-08T04:19:37.093Z,1.30
2024-01-08T04:22:04.476Z,1.30
2024-01-08T04:24:31.655Z,1.20
2024-01-08T04:26:58.766Z,1.10
2024-01-08T04:29:25.946Z,1.10
2024-01-08T04:31:53.214Z,1.10
2024-01-08T04:34:20.426Z,1.10
2024-01-08T04:36:47.619Z,1.10
2024-01-08T04:39:14.873Z,1.10
2024-01-08T04:41:42.189Z,1.10
2024-01-08T04:44:10.510Z,1.20
2024-01-08T04:46:38.060Z,1.20
2024-01-08T04:49:06.037Z,1.20
2024-01-08T04:51:35.485Z,1.20
2024-01-08T04:54:03.002Z,1.20
2024-01-08T04:56:30.276Z,1.20
2024-01-08T04:58:57.835Z,1.10
2024-01-08T05:01:25.478Z,1.10
2024-01-08T05:03:53.148Z,1.20
2024-01-08T05:06:20.601Z,1.30
2024-01-08T05:08:47.876Z,1.20
2024-01-08T05:11:15.336Z,1.10
2024-01-08T05:13:42.824Z,1.10
2024-01-08T05:16:10.560Z,1.10
2024-01-08T05:18:38.213Z,1.00
2024-01-08T05:21:06.073Z,0.90
2024-01-08T05:23:34.350Z,0.90
2024-01-08T05:26:02.041Z,0.90
2024-01-08T05:28:32.277Z,0.90
2024-01-08T05:30:59.635Z,0.90
2024-01-08T05:33:27.840Z,0.90
2024-01-08T05:35:55.243Z,1.00
2024-01-08T05:38:22.830Z,0.90
2024-01-08T05:40:51.134Z,0.90
2024-01-08T05:43:18.857Z,0.90
2024-01-08T05:45:46.083Z,0.90
2024-01-08T05:48:14.275Z,0.90
2024-01-08T05:50:42.189Z,0.90
2024-01-08T05:53:09.661Z,1.00
2024-01-08T05:55:36.920Z,0.90
2024-01-08T05:58:04.458Z,1.00
2024-01-08T06:00:31.660Z,1.00
2024-01-08T06:02:58.877Z,0.90
2024-01-08T06:05:26.161Z,1.00
2024-01-08T06:07:53.466Z,1.00
2024-01-08T06:10:20.603Z,1.00
2024-01-08T06:12:47.727Z,1.00
2024-01-08T06:15:15.013Z,1.10
2024-01-08T06:17:46.018Z,1.00
2024-01-08T06:20:14.541Z,1.10
2024-01-08T06:22:42.187Z,1.10
2024-01-08T06:25:09.452Z,1.10
2024-01-08T06:27:36.587Z,1.10
2024-01-08T06:30:04.042Z,1.20
2024-01-08T06:32:31.415Z,1.10
2024-01-08T06:34:58.706Z,1.10
2024-01-08T06:37:25.836Z,1.10
2024-01-08T06:39:52.950Z,1.20
2024-01-08T06:42:20.141Z,1.10
2024-01-08T06:44:47.310Z,1.10
2024-01-08T06:47:14.500Z,1.10
2024-01-08T06:49:41.590Z,1.10
2024-01-08T06:52:09.694Z,1.20
2024-01-08T06:54:36.854Z,1.20
2024-01-08T06:57:03.996Z,1.20
2024-01-08T06:59:31.274Z,1.20
2024-01-08T07:04:25.635Z,1.30
2024-01-08T07:06:53.052Z,1.40
2024-01-08T07:09:20.193Z,1.40
2024-01-08T07:11:47.308Z,1.30
2024-01-08T07:14:14.419Z,1.20
2024-01-08T07:16:41.639Z,1.30
2024-01-08T07:19:08.831Z,1.30
2024-01-08T07:21:36.108Z,1.30
2024-01-08T07:24:04.379Z,1.30
2024-01-08T07:26:31.675Z,1.30
2024-01-08T07:28:58.929Z,1.30
2024-01-08T07:31:26.319Z,1.30
2024-01-08T07:33:54.295Z,1.30
2024-01-08T07:36:22.356Z,1.30
2024-01-08T07:38:49.437Z,1.40
2024-01-08T07:41:16.930Z,1.30
2024-01-08T07:43:44.651Z,1.30
2024-01-08T07:46:11.831Z,1.30
2024-01-08T07:48:39.149Z,1.40
2024-01-08T07:51:06.557Z,1.40
2024-01-08T07:53:33.776Z,1.40
2024-01-08T07:56:00.965Z,1.50
2024-01-08T07:58:35.795Z,1.50
2024-01-08T08:01:07.137Z,1.50
2024-01-08T08:03:34.648Z,1.50
2024-01-08T08:06:02.678Z,1.40
2024-01-08T08:08:32.376Z,1.50
2024-01-08T08:11:00.887Z,1.50
2024-01-08T08:13:29.008Z,1.50
2024-01-08T08:15:56.304Z,1.50
2024-01-08T08:18:24.179Z,1.60
2024-01-08T08:20:51.765Z,1.50
2024-01-08T08:23:19.025Z,1.50
2024-01-08T08:25:46.210Z,1.50
2024-01-08T08:28:13.384Z,1.60
2024-01-08T08:30:40.547Z,1.60
2024-01-08T08:33:07.877Z,1.60
2024-01-08T08:35:37.351Z,1.60
2024-01-08T08:38:04.775Z,1.60
2024-01-08T08:40:31.920Z,1.70
2024-01-08T08:42:59.040Z,1.60
2024-01-08T08:45:26.190Z,1.60
2024-01-08T08:47:53.465Z,1.60
2024-01-08T08:50:20.987Z,1.50
2024-01-08T08:52:48.265Z,1.60
2024-01-08T08:55:15.805Z,1.60
2024-01-08T08:57:43.131Z,1.60
2024-01-08T09:00:12.004Z,1.60
2024-01-08T09:02:40.208Z,1.60
2024-01-08T09:05:09.506Z,1.60
2024-01-08T09:07:37.752Z,1.60
2024-01-08T09:10:05.380Z,1.50
2024-01-08T09:12:32.473Z,1.50
2024-01-08T09:14:59.698Z,1.50
2024-01-08T09:17:27.077Z,1.50
2024-01-08T09:19:57.892Z,1.60
2024-01-08T09:22:26.114Z,1.60
2024-01-08T09:24:53.642Z,1.50
2024-01-08T09:27:20.934Z,1.40
2024-01-08T09:29:48.161Z,1.30
2024-01-08T09:32:15.444Z,1.30
2024-01-08T09:34:42.595Z,1.20
2024-01-08T09:37:09.663Z,1.20
2024-01-08T09:39:37.113Z,1.20
2024-01-08T09:42:05.055Z,1.20
2024-01-08T09:44:33.985Z,1.20
2024-01-08T09:47:04.693Z,1.20
2024-01-08T09:49:35.924Z,1.20
2024-01-08T09:52:03.740Z,1.20
2024-01-08T09:54:31.227Z,1.30
2024-01-08T09:57:01.381Z,1.30
2024-01-08T09:59:29.115Z,1.40
2024-01-08T10:01:57.797Z,1.30
2024-01-08T10:04:28.580Z,1.30
2024-01-08T10:07:09.516Z,1.40
2024-01-08T10:09:37.254Z,1.40
2024-01-08T10:12:08.659Z,1.40
2024-01-08T10:14:36.766Z,1.40
2024-01-08T10:17:04.112Z,1.50
2024-01-08T10:19:32.272Z,1.50
2024-01-08T10:22:09.122Z,1.50
2024-01-08T10:24:44.155Z,1.50
2024-01-08T10:27:12.882Z,1.50
2024-01-08T10:29:41.380Z,1.60
2024-01-08T10:32:11.984Z,1.50
2024-01-08T10:34:40.570Z,1.50
2024-01-08T10:37:07.941Z,1.50
2024-01-08T10:39:47.352Z,1.50
2024-01-08T10:42:18.898Z,1.60
2024-01-08T10:44:47.939Z,1.50
2024-01-08T10:47:27.751Z,1.50
2024-01-08T10:50:04.290Z,1.50
2024-01-08T10:52:36.036Z,1.60
2024-01-08T10:55:05.688Z,1.60
2024-01-08T10:58:06.412Z,1.60
2024-01-08T11:00:34.387Z,1.60
2024-01-08T11:03:03.511Z,1.60
2024-01-08T11:05:34.291Z,1.50
2024-01-08T11:08:03.408Z,1.50
2024-01-08T11:10:30.720Z,1.50
2024-01-08T11:12:58.731Z,1.50
2024-01-08T11:15:28.358Z,1.50
2024-01-08T11:17:59.841Z,1.40
2024-01-08T11:20:45.989Z,1.40
2024-01-08T11:23:36.693Z,1.50
2024-01-08T11:26:06.171Z,1.50
2024-01-08T11:28:37.887Z,1.50
2024-01-08T11:31:58.087Z,1.50
2024-01-08T11:34:45.778Z,1.50
2024-01-08T11:37:33.978Z,1.50
2024-01-08T11:40:11.039Z,1.40
2024-01-08T11:42:40.785Z,1.50
2024-01-08T11:45:08.403Z,1.50
2024-01-08T11:47:37.193Z,1.50
2024-01-08T11:50:06.094Z,1.60
2024-01-08T11:52:34.640Z,1.60
2024-01-08T11:55:01.888Z,1.60
2024-01-08T11:57:29.172Z,1.50
2024-01-08T11:59:56.291Z,1.50
2024-01-08T12:02:26.390Z,1.50
2024-01-08T12:04:56.725Z,1.60
2024-01-08T12:07:25.424Z,1.60
2024-01-08T12:09:54.643Z,1.60
2024-01-08T12:12:24.370Z,1.60
2024-01-08T12:14:51.976Z,1.60
2024-01-08T12:17:20.294Z,1.50
2024-01-08T12:19:54.927Z,1.50
2024-01-08T12:22:23.822Z,1.50
2024-01-08T12:24:57.429Z,1.50
2024-01-08T12:27:33.043Z,1.50
2024-01-08T12:30:00.690Z,1.50
2024-01-08T12:32:29.838Z,1.50
2024-01-08T12:34:58.243Z,1.40
2024-01-08T12:37:33.426Z,1.40
2024-01-08T12:40:01.476Z,1.30
2024-01-08T12:42:28.936Z,1.30
2024-01-08T12:44:57.358Z,1.40
2024-01-08T12:47:24.915Z,1.20
2024-01-08T12:49:52.337Z,1.20
2024-01-08T12:52:23.395Z,1.10
2024-01-08T12:54:50.995Z,1.20
2024-01-08T12:57:18.230Z,1.10
2024-01-08T12:59:57.878Z,1.20
2024-01-08T13:02:32.975Z,1.10
2024-01-08T13:05:02.265Z,1.10
2024-01-08T13:07:29.527Z,1.10
2024-01-08T13:09:56.904Z,1.00
2024-01-08T13:12:24.056Z,1.00
2024-01-08T13:14:51.250Z,1.00
2024-01-08T13:17:18.503Z,1.00
2024-01-08T13:19:45.781Z,1.00
2024-01-08T13:22:12.972Z,1.00
2024-01-08T13:24:40.467Z,0.90
2024-01-08T13:27:12.821Z,1.00
2024-01-08T13:29:40.948Z,1.00
2024-01-08T13:32:12.931Z,1.00
2024-01-08T13:34:40.278Z,1.10
2024-01-08T13:37:07.458Z,1.00
2024-01-08T13:39:34.601Z,1.10
2024-01-08T13:42:01.798Z,1.10
2024-01-08T13:44:28.961Z,1.20
2024-01-08T13:46:56.227Z,1.20
2024-01-08T13:49:23.518Z,1.10
2024-01-08T13:51:50.737Z,1.10
2024-01-08T13:54:17.969Z,1.10
2024-01-08T13:56:45.186Z,1.20
2024-01-08T13:59:12.696Z,1.10
2024-01-08T14:01:39.993Z,1.10
2024-01-08T14:04:07.080Z,1.10
2024-01-08T14:06:34.367Z,1.10
2024-01-08T14:09:01.543Z,1.00
2024-01-08T14:11:28.732Z,1.00
2024-01-08T14:13:55.950Z,1.00
2024-01-08T14:16:23.089Z,1.00
2024-01-08T14:18:50.344Z,1.00
2024-01-08T14:21:17.597Z,1.00
2024-01-08T14:23:44.734Z,1.00
2024-01-08T14:26:11.930Z,1.00
2024-01-08T14:28:39.084Z,1.00
2024-01-08T14:31:09.760Z,0.90
2024-01-08T14:33:38.665Z,0.90
2024-01-08T14:36:09.206Z,1.00
2024-01-08T14:38:36.529Z,0.90
2024-01-08T14:41:04.107Z,0.90
2024-01-08T14:43:32.462Z,0.80
2024-01-08T14:46:01.039Z,0.80
2024-01-08T14:48:28.671Z,0.90
2024-01-08T14:50:55.859Z,0.90
2024-01-08T14:53:23.079Z,0.90
2024-01-08T14:55:50.231Z,0.80
2024-01-08T14:58:18.397Z,0.80
2024-01-08T15:00:45.558Z,0.80
2024-01-08T15:03:12.995Z,0.70
2024-01-08T15:05:40.242Z,0.80
2024-01-08T15:08:08.378Z,0.80
2024-01-08T15:10:35.602Z,0.80
2024-01-08T15:13:03.186Z,0.80
2024-01-08T15:15:31.555Z,0.80
2024-01-08T15:17:58.784Z,0.70
2024-01-08T15:20:26.040Z,0.70
2024-01-08T15:22:53.240Z,0.70
2024-01-08T15:25:20.466Z,0.60
2024-01-08T15:27:47.719Z,0.50
2024-01-08T15:30:15.928Z,0.50
2024-01-08T15:32:43.760Z,0.50
2024-01-08T15:35:12.605Z,0.60
2024-01-08T15:37:39.986Z,0.60
2024-01-08T15:40:08.652Z,0.60
2024-01-08T15:42:36.241Z,0.50
2024-01-08T15:45:04.318Z,0.60
2024-01-08T15:47:31.499Z,0.50
2024-01-08T15:49:58.814Z,0.50
2024-01-08T15:52:26.000Z,0.50
2024-01-08T15:54:53.238Z,0.40
2024-01-08T15:57:20.431Z,0.50
2024-01-08T15:59:47.719Z,0.60
2024-01-08T16:02:15.022Z,0.60
2024-01-08T16:04:42.403Z,0.50
2024-01-08T16:07:09.829Z,0.60
2024-01-08T16:09:37.218Z,0.60
2024-01-08T16:12:06.990Z,0.70
2024-01-08T16:14:35.045Z,0.70
2024-01-08T16:17:02.690Z,0.70
2024-01-08T16:19:31.092Z,0.70
2024-01-08T16:21:58.954Z,0.70
2024-01-08T16:24:26.397Z,0.70
2024-01-08T16:26:53.847Z,0.80
2024-01-08T16:29:21.168Z,0.80
2024-01-08T16:31:48.453Z,0.90
2024-01-08T16:34:15.773Z,0.90
2024-01-08T16:36:43.073Z,0.90
2024-01-08T16:39:10.458Z,0.80
2024-01-08T16:41:37.755Z,0.70
2024-01-08T16:44:05.645Z,0.70
2024-01-08T16:46:33.326Z,0.70
2024-01-08T16:49:00.741Z,0.80
2024-01-08T16:51:28.061Z,0.80
2024-01-08T16:53:55.379Z,0.90
2024-01-08T16:56:22.610Z,0.80
2024-01-08T16:58:53.366Z,0.90
2024-01-08T17:01:21.413Z,0.90
2024-01-08T17:03:48.734Z,0.90
2024-01-08T17:06:16.375Z,0.90
2024-01-08T17:08:43.773Z,0.90
2024-01-08T17:11:11.611Z,0.90
2024-01-08T17:13:38.808Z,0.90
2024-01-08T17:16:06.068Z,0.90
2024-01-08T17:18:33.556Z,0.80
2024-01-08T17:21:01.396Z,0.80
2024-01-08T17:23:29.079Z,0.70
2024-01-08T17:25:56.256Z,0.60
2024-01-08T17:28:23.483Z,0.60
2024-01-08T17:30:50.754Z,0.60
2024-01-08T17:33:18.285Z,0.60
2024-01-08T17:35:46.432Z,0.70
2024-01-08T17:38:13.873Z,0.70
2024-01-08T17:40:41.677Z,0.70
2024-01-08T17:43:09.108Z,0.60
2024-01-08T17:45:36.314Z,0.50
2024-01-08T17:48:03.887Z,0.60
2024-01-08T17:50:33.461Z,0.70
2024-01-08T17:53:01.251Z,0.70
2024-01-08T17:55:28.591Z,0.80
2024-01-08T17:57:55.798Z,0.80
2024-01-08T18:00:22.915Z,0.80
2024-01-08T18:02:50.378Z,0.80
2024-01-08T18:05:17.874Z,0.80
2024-01-08T18:07:45.299Z,0.80
2024-01-08T18:10:12.658Z,0.80
2024-01-08T18:12:43.494Z,0.80
2024-01-08T18:15:11.411Z,0.80
2024-01-08T18:17:40.820Z,0.80
2024-01-08T18:20:09.074Z,0.90
2024-01-08T18:22:36.330Z,0.90
2024-01-08T18:25:04.893Z,0.80
2024-01-08T18:27:32.041Z,0.80
2024-01-08T18:29:59.167Z,0.90
2024-01-08T18:32:26.691Z,0.90
2024-01-08T18:34:54.116Z,0.90
2024-01-08T18:37:21.634Z,0.80
2024-01-08T18:39:48.849Z,0.90
2024-01-08T18:42:18.056Z,0.80
2024-01-08T18:44:45.913Z,0.80
2024-01-08T18:47:13.488Z,0.80
2024-01-08T18:49:40.876Z,0.80
2024-01-08T18:52:08.032Z,0.70
2024-01-08T18:54:35.229Z,0.70
2024-01-08T18:57:02.355Z,0.70
2024-01-08T18:59:34.771Z,0.50
2024-01-08T19:02:04.797Z,0.50
2024-01-08T19:04:32.169Z,0.50
2024-01-08T19:06:59.443Z,0.50
2024-01-08T19:09:26.705Z,0.40
2024-01-08T19:11:56.709Z,0.40
2024-01-08T19:14:24.154Z,0.30
2024-01-08T19:16:51.323Z,0.40
2024-01-08T19:19:18.598Z,0.50
2024-01-08T19:21:45.832Z,0.50
2024-01-08T19:24:13.048Z,0.60
2024-01-08T19:26:40.305Z,0.60
2024-01-08T19:29:07.469Z,0.70
2024-01-08T19:31:34.927Z,0.70
2024-01-08T19:34:02.197Z,0.70
2024-01-08T19:36:29.667Z,0.60
2024-01-08T19:38:56.826Z,0.60
2024-01-08T19:41:25.527Z,0.60
2024-01-08T19:43:52.872Z,0.50
2024-01-08T19:46:20.075Z,0.40
2024-01-08T19:48:47.842Z,0.40
2024-01-08T19:51:15.360Z,0.40
2024-01-08T19:53:43.091Z,0.40
2024-01-08T19:56:10.486Z,0.40
2024-01-08T19:58:37.753Z,0.40
2024-01-08T20:01:05.299Z,0.40
2024-01-08T20:03:32.469Z,0.30
2024-01-08T20:05:59.887Z,0.30
2024-01-08T20:08:27.322Z,0.30
2024-01-08T20:10:55.329Z,0.20
2024-01-08T20:13:22.441Z,0.20
2024-01-08T20:15:49.648Z,0.20
2024-01-08T20:18:16.883Z,0.20
2024-01-08T20:20:45.921Z,0.20
2024-01-08T20:23:14.338Z,0.20
2024-01-08T20:25:41.662Z,0.20
2024-01-08T20:28:11.162Z,0.20
2024-01-08T20:30:38.615Z,0.20
2024-01-08T20:33:06.999Z,0.20
2024-01-08T20:35:34.444Z,0.20
2024-01-08T20:38:01.909Z,0.10
2024-01-08T20:40:29.543Z,0.10
2024-01-08T20:42:56.794Z,0.00
2024-01-08T20:45:24.177Z,0.00
2024-01-08T20:47:51.351Z,0.00
2024-01-08T20:50:19.137Z,0.10
2024-01-08T20:52:46.614Z,0.10
2024-01-08T20:55:13.725Z,0.10
2024-01-08T20:57:40.958Z,0.10
2024-01-08T21:00:08.768Z,0.10
2024-01-08T21:02:37.574Z,0.00
2024-01-08T21:05:06.318Z,0.00
2024-01-08T21:07:33.480Z,0.00
2024-01-08T21:10:00.716Z,0.10
2024-01-08T21:12:27.882Z,0.00
2024-01-08T21:14:55.519Z,0.00
2024-01-08T21:17:22.872Z,0.00
2024-01-08T21:19:50.189Z,0.00
2024-01-08T21:22:17.329Z,0.00
2024-01-08T21:24:44.806Z,0.00
2024-01-08T21:27:12.633Z,0.00
2024-01-08T21:29:42.895Z,0.10
2024-01-08T21:32:16.796Z,0.00
2024-01-08T21:34:49.851Z,-0.10
2024-01-08T21:37:17.044Z,-0.10
2024-01-08T21:39:45.833Z,-0.10
2024-01-08T21:42:13.208Z,-0.10
2024-01-08T21:44:40.399Z,-0.20
2024-01-08T21:47:08.447Z,-0.10
2024-01-08T21:49:35.720Z,-0.10
2024-01-08T21:52:03.259Z,-0.10
2024-01-08T21:54:30.445Z,-0.20
2024-01-08T21:56:57.587Z,-0.20
2024-01-08T21:59:24.830Z,-0.20
2024-01-08T22:01:51.947Z,-0.30
2024-01-08T22:04:19.149Z,-0.30
2024-01-08T22:06:46.297Z,-0.30
2024-01-08T22:09:16.571Z,-0.30
2024-01-08T22:11:43.870Z,-0.30
2024-01-08T22:14:11.066Z,-0.30
2024-01-08T22:16:38.554Z,-0.30
2024-01-08T22:19:05.722Z,-0.30
2024-01-08T22:21:32.928Z,-0.40
2024-01-08T22:24:00.272Z,-0.40
2024-01-08T22:26:27.524Z,-0.40
2024-01-08T22:28:54.995Z,-0.50
2024-01-08T22:31:22.159Z,-0.40
2024-01-08T22:33:49.550Z,-0.40
2024-01-08T22:36:17.152Z,-0.30
2024-01-08T22:38:44.404Z,-0.40
2024-01-08T22:41:11.609Z,-0.50
2024-01-08T22:43:38.837Z,-0.50
2024-01-08T22:46:05.966Z,-0.50
2024-01-08T22:48:33.135Z,-0.50
2024-01-08T22:51:00.467Z,-0.60
2024-01-08T22:53:27.929Z,-0.50
2024-01-08T22:55:55.477Z,-0.50
2024-01-08T22:58:22.702Z,-0.50
2024-01-08T23:00:49.828Z,-0.60
2024-01-08T23:03:17.228Z,-0.50
2024-01-08T23:05:44.497Z,-0.60
2024-01-08T23:08:11.748Z,-0.60
2024-01-08T23:10:38.996Z,-0.70
2024-01-08T23:13:06.416Z,-0.70
2024-01-08T23:15:33.542Z,-0.70
2024-01-08T23:18:04.885Z,-0.70
2024-01-08T23:20:32.257Z,-0.70
2024-01-08T23:23:01.344Z,-0.70
2024-01-08T23:25:29.165Z,-0.70
2024-01-08T23:27:56.301Z,-0.70
2024-01-08T23:30:23.428Z,-0.70
2024-01-08T23:32:50.636Z,-0.80
2024-01-08T23:35:18.063Z,-0.80
2024-01-08T23:37:45.311Z,-0.70
2024-01-08T23:40:12.790Z,-0.80
2024-01-08T23:42:40.706Z,-0.80
2024-01-08T23:45:08.484Z,-0.80
2024-01-08T23:47:35.791Z,-0.80
2024-01-08T23:50:03.460Z,-0.80
2024-01-08T23:52:31.386Z,-1.00
2024-01-08T23:54:59.874Z,-0.90
2024-01-08T23:57:27.249Z,-0.80
2024-01-08T23:59:54.448Z,-0.80
